createdAt,value
2019-02-06T04:54:05.531Z,68.91
2019-02-06T04:56:36.034Z,68.90
2019-02-06T04:59:06.466Z,68.53
2019-02-06T05:01:38.421Z,68.21
2019-02-06T05:04:08.856Z,67.56
2019-02-06T05:06:39.265Z,67.05
2019-02-06T05:09:13.799Z,66.45
2019-02-06T05:11:44.231Z,66.09
2019-02-06T05:14:14.662Z,65.71
2019-02-06T05:16:45.191Z,65.45
2019-02-06T05:19:16.159Z,65.00
2019-02-06T05:21:47.525Z,64.66
2019-02-06T05:24:18.321Z,64.35
2019-02-06T05:26:48.715Z,64.10
2019-02-06T05:29:19.280Z,63.91
2019-02-06T05:31:49.737Z,64.11
2019-02-06T05:34:20.235Z,64.21
2019-02-06T05:36:51.133Z,64.15
2019-02-06T05:39:21.707Z,64.04
2019-02-06T05:41:52.542Z,64.03
2019-02-06T05:44:22.971Z,64.05
2019-02-06T05:46:53.407Z,63.89
2019-02-06T05:49:23.823Z,63.72
2019-02-06T05:51:54.260Z,63.73
2019-02-06T05:54:24.698Z,63.39
2019-02-06T05:56:55.416Z,63.47
2019-02-06T05:59:25.959Z,63.32
2019-02-06T06:01:56.338Z,63.28
2019-02-06T06:04:26.811Z,63.43
2019-02-06T06:06:57.233Z,63.31
2019-02-06T06:09:27.691Z,63.26
2019-02-06T06:11:58.108Z,63.29
2019-02-06T06:14:28.517Z,63.65
2019-02-06T06:16:59.066Z,63.64
2019-02-06T06:19:29.687Z,63.66
2019-02-06T06:22:00.355Z,63.27
2019-02-06T06:24:30.849Z,63.20
2019-02-06T06:27:01.269Z,62.89
2019-02-06T06:29:31.703Z,62.77
2019-02-06T06:32:02.181Z,62.59
2019-02-06T06:34:32.647Z,62.73
2019-02-06T06:37:03.503Z,63.07
2019-02-06T06:39:33.933Z,63.08
2019-02-06T06:42:04.326Z,62.95
2019-02-06T06:44:35.197Z,62.81
2019-02-06T06:47:05.615Z,62.63
2019-02-06T06:49:36.073Z,62.38
2019-02-06T06:52:06.609Z,62.41
2019-02-06T06:54:37.187Z,62.09
2019-02-06T06:57:07.654Z,62.07
2019-02-06T06:59:38.217Z,61.97
2019-02-06T07:02:08.711Z,61.70
2019-02-06T07:04:39.435Z,61.44
2019-02-06T07:07:09.867Z,61.13
2019-02-06T07:09:40.396Z,61.17
2019-02-06T07:12:11.026Z,61.07
2019-02-06T07:14:41.480Z,60.60
2019-02-06T07:17:11.890Z,60.14
2019-02-06T07:19:42.310Z,59.79
2019-02-06T07:22:12.742Z,59.54
2019-02-06T07:24:43.175Z,59.73
2019-02-06T07:27:13.574Z,59.90
2019-02-06T07:29:43.973Z,59.72
2019-02-06T07:32:14.962Z,59.69
2019-02-06T07:34:45.393Z,59.62
2019-02-06T07:37:15.924Z,59.39
2019-02-06T07:39:46.459Z,59.18
2019-02-06T07:42:17.016Z,58.99
2019-02-06T07:44:47.514Z,59.03
2019-02-06T07:47:17.946Z,58.72
2019-02-06T07:49:48.481Z,58.46
2019-02-06T07:52:19.010Z,58.67
2019-02-06T07:54:49.637Z,58.67
2019-02-06T07:57:20.600Z,58.41
2019-02-06T07:59:51.524Z,58.06
2019-02-06T08:02:22.058Z,58.00
2019-02-06T08:04:52.475Z,57.92
2019-02-06T08:07:22.872Z,57.69
2019-02-06T08:09:53.334Z,57.75
2019-02-06T08:12:24.210Z,57.82
2019-02-06T08:14:55.032Z,57.29
2019-02-06T08:17:25.511Z,57.07
2019-02-06T08:19:55.961Z,57.33
2019-02-06T08:22:26.393Z,56.98
2019-02-06T08:24:57.942Z,56.46
2019-02-06T08:27:28.781Z,56.41
2019-02-06T08:29:59.427Z,56.55
2019-02-06T08:32:29.842Z,56.38
2019-02-06T08:35:01.417Z,56.25
2019-02-06T08:37:32.032Z,55.95
2019-02-06T08:40:02.665Z,56.11
2019-02-06T08:42:33.204Z,55.96
2019-02-06T08:45:04.933Z,55.32
2019-02-06T08:47:35.338Z,55.04
2019-02-06T08:50:09.130Z,54.83
2019-02-06T08:52:39.560Z,55.01
2019-02-06T08:55:13.370Z,54.10
2019-02-06T08:57:43.860Z,54.01
2019-02-06T09:00:17.581Z,53.80
2019-02-06T09:02:48.106Z,53.69
2019-02-06T09:05:18.511Z,53.26
2019-02-06T09:07:49.192Z,53.00
2019-02-06T09:10:24.668Z,52.95
2019-02-06T09:12:56.380Z,52.93
2019-02-06T09:15:27.606Z,53.04
2019-02-06T09:17:58.129Z,52.72
2019-02-06T09:20:30.148Z,52.38
2019-02-06T09:23:00.619Z,52.16
2019-02-06T09:25:31.481Z,52.43
2019-02-06T09:28:02.011Z,51.98
2019-02-06T09:30:35.096Z,52.32
2019-02-06T09:33:05.934Z,51.87
2019-02-06T09:35:36.401Z,52.29
2019-02-06T09:38:06.800Z,52.17
2019-02-06T09:40:37.317Z,51.77
2019-02-06T09:43:07.721Z,51.59
2019-02-06T09:45:39.205Z,51.63
2019-02-06T09:48:09.778Z,51.13
2019-02-06T09:50:40.178Z,50.32
2019-02-06T09:53:10.641Z,50.93
2019-02-06T09:55:41.123Z,49.70
2019-02-06T09:58:11.514Z,50.35
2019-02-06T10:00:41.984Z,50.92
2019-02-06T10:03:12.445Z,50.71
2019-02-06T10:05:42.929Z,50.25
2019-02-06T10:08:13.460Z,50.00
2019-02-06T10:10:43.895Z,50.44
2019-02-06T10:13:16.490Z,50.12
2019-02-06T10:15:46.490Z,49.96
2019-02-06T10:18:17.329Z,50.00
2019-02-06T10:20:49.184Z,48.70
2019-02-06T10:23:19.716Z,48.25
2019-02-06T10:25:50.248Z,46.71
2019-02-06T10:28:20.678Z,46.50
2019-02-06T10:30:51.110Z,45.66
2019-02-06T10:33:21.535Z,45.30
2019-02-06T10:35:52.582Z,44.75
2019-02-06T10:38:23.207Z,43.91
2019-02-06T10:40:53.639Z,43.94
2019-02-06T10:43:31.750Z,42.86
2019-02-06T10:45:56.545Z,42.82
2019-02-06T10:48:26.973Z,43.47
2019-02-06T10:50:58.471Z,43.19
2019-02-06T10:53:29.057Z,42.42
2019-02-06T10:55:59.995Z,40.53
2019-02-06T10:58:30.740Z,40.92
2019-02-06T11:01:01.359Z,40.42
2019-02-06T11:03:31.826Z,41.61
2019-02-06T11:06:02.324Z,41.47
2019-02-06T11:08:32.755Z,42.29
2019-02-06T11:11:03.323Z,42.26
2019-02-06T11:13:33.816Z,41.96
2019-02-06T11:16:04.294Z,42.06
2019-02-06T11:18:34.767Z,41.96
2019-02-06T11:21:05.296Z,42.64
2019-02-06T11:23:35.759Z,41.72
2019-02-06T11:26:06.268Z,42.66
2019-02-06T11:28:37.809Z,41.54
2019-02-06T11:31:08.450Z,42.32
2019-02-06T11:33:38.871Z,42.67
2019-02-06T11:36:09.307Z,43.10
2019-02-06T11:38:39.876Z,42.60
2019-02-06T11:41:10.266Z,42.60
2019-02-06T11:43:40.818Z,43.00
2019-02-06T11:46:11.527Z,43.09
2019-02-06T11:48:43.399Z,43.69
2019-02-06T11:51:14.538Z,44.20
2019-02-06T11:53:45.183Z,44.47
2019-02-06T11:56:16.214Z,43.95
2019-02-06T11:58:47.667Z,43.79
2019-02-06T12:01:19.734Z,44.23
2019-02-06T12:03:50.155Z,44.56
2019-02-06T12:06:20.596Z,45.13
2019-02-06T12:08:51.082Z,45.24
2019-02-06T12:11:22.475Z,44.88
2019-02-06T12:13:52.891Z,44.99
2019-02-06T12:16:23.487Z,44.92
2019-02-06T12:18:54.485Z,45.28
2019-02-06T12:21:26.020Z,45.43
2019-02-06T12:23:56.455Z,45.33
2019-02-06T12:26:26.984Z,45.82
2019-02-06T12:28:57.862Z,45.78
2019-02-06T12:31:28.256Z,45.70
2019-02-06T12:33:58.722Z,46.23
2019-02-06T12:36:29.204Z,46.68
2019-02-06T12:38:59.669Z,47.04
2019-02-06T12:41:30.166Z,46.00
2019-02-06T12:44:01.644Z,45.57
2019-02-06T12:46:32.148Z,45.70
2019-02-06T12:49:02.777Z,45.87
2019-02-06T12:51:33.210Z,46.00
2019-02-06T12:54:03.641Z,46.45
2019-02-06T12:56:34.062Z,46.49
2019-02-06T12:59:04.597Z,46.95
2019-02-06T13:01:35.026Z,46.86
2019-02-06T13:04:05.600Z,46.20
2019-02-06T13:06:36.191Z,46.37
2019-02-06T13:09:08.030Z,47.19
2019-02-06T13:11:38.435Z,47.24
2019-02-06T13:14:08.980Z,46.94
2019-02-06T13:16:39.438Z,46.74
2019-02-06T13:19:09.870Z,46.91
2019-02-06T13:21:40.398Z,46.58
2019-02-06T13:24:10.820Z,46.53
2019-02-06T13:26:44.120Z,46.85
2019-02-06T13:29:13.358Z,46.67
2019-02-06T13:31:44.145Z,48.02
2019-02-06T13:34:14.547Z,47.27
2019-02-06T13:36:45.022Z,47.11
2019-02-06T13:39:15.551Z,47.72
2019-02-06T13:41:45.971Z,47.96
2019-02-06T13:44:16.459Z,47.40
2019-02-06T13:46:53.235Z,47.77
2019-02-06T13:49:20.369Z,47.42
2019-02-06T13:51:50.834Z,47.47
2019-02-06T13:54:21.249Z,47.28
2019-02-06T13:56:51.714Z,47.86
2019-02-06T13:59:22.098Z,48.03
2019-02-06T14:01:52.644Z,48.38
2019-02-06T14:04:23.174Z,49.72
2019-02-06T14:06:53.804Z,48.40
2019-02-06T14:09:26.045Z,48.28
2019-02-06T14:11:56.617Z,48.35
2019-02-06T14:14:27.235Z,48.57
2019-02-06T14:16:58.594Z,48.51
2019-02-06T14:19:29.012Z,48.57
2019-02-06T14:21:59.446Z,49.11
2019-02-06T14:24:33.147Z,48.87
2019-02-06T14:27:10.241Z,48.99
2019-02-06T14:30:08.109Z,48.85
2019-02-06T14:32:47.746Z,48.99
2019-02-06T14:35:24.120Z,49.32
2019-02-06T14:38:03.972Z,49.45
2019-02-06T14:40:56.110Z,49.39
2019-02-06T14:43:53.980Z,49.80
2019-02-06T14:46:53.514Z,50.04
2019-02-06T14:49:42.290Z,49.56
2019-02-06T14:52:16.009Z,50.85
2019-02-06T14:54:55.258Z,50.48
2019-02-06T14:57:34.432Z,51.24
2019-02-06T15:00:20.622Z,51.31
2019-02-06T15:03:06.613Z,51.71
2019-02-06T15:05:50.453Z,54.18
2019-02-06T15:08:57.234Z,52.47
2019-02-06T15:11:47.422Z,53.02
2019-02-06T15:14:33.188Z,53.96
2019-02-06T15:17:16.133Z,56.91
2019-02-06T15:20:04.798Z,54.40
2019-02-06T15:22:59.717Z,55.35
2019-02-06T15:25:42.212Z,53.75
2019-02-06T15:28:24.767Z,53.84
2019-02-06T15:31:25.515Z,54.26
2019-02-06T15:33:59.169Z,54.90
2019-02-06T15:36:32.841Z,54.97
2019-02-06T15:39:15.894Z,55.42
2019-02-06T15:41:55.947Z,55.34
2019-02-06T15:44:38.670Z,59.42
2019-02-06T15:47:33.772Z,56.83
2019-02-06T15:50:13.263Z,56.05
2019-02-06T15:53:03.632Z,56.44
2019-02-06T15:56:01.274Z,56.66
2019-02-06T15:58:56.173Z,56.75
2019-02-06T16:01:48.012Z,56.87
2019-02-06T16:04:38.496Z,56.67
2019-02-06T16:07:26.960Z,56.99
2019-02-06T16:10:07.836Z,56.80
2019-02-06T16:12:53.597Z,56.78
2019-02-06T16:15:36.245Z,57.20
2019-02-06T16:18:12.797Z,57.07
2019-02-06T16:21:04.347Z,57.08
2019-02-06T16:23:46.914Z,56.99
2019-02-06T16:26:38.615Z,56.98
2019-02-06T16:29:24.043Z,58.34
2019-02-06T16:32:29.873Z,57.37
2019-02-06T16:35:06.072Z,57.20
2019-02-06T16:37:49.201Z,57.54
2019-02-06T16:40:36.015Z,57.83
2019-02-06T16:43:15.543Z,57.66
2019-02-06T16:46:23.913Z,58.11
2019-02-06T16:49:03.307Z,58.28
2019-02-06T16:51:40.079Z,59.00
2019-02-06T16:54:31.598Z,59.14
2019-02-06T16:57:23.647Z,58.94
2019-02-06T17:00:23.459Z,58.69
2019-02-06T17:03:06.077Z,58.59
2019-02-06T17:06:08.562Z,58.65
2019-02-06T17:09:17.173Z,60.08
2019-02-06T17:12:04.539Z,60.21
2019-02-06T17:14:47.639Z,59.92
2019-02-06T17:17:38.378Z,58.62
2019-02-06T17:20:24.227Z,60.11
2019-02-06T17:23:21.283Z,59.63
2019-02-06T17:26:06.812Z,57.96
2019-02-06T17:29:01.579Z,58.11
2019-02-06T17:31:47.245Z,61.29
2019-02-06T17:34:29.964Z,58.05
2019-02-06T17:37:26.032Z,58.29
2019-02-06T17:40:07.242Z,58.55
2019-02-06T17:42:55.859Z,60.83
2019-02-06T17:45:41.404Z,60.34
2019-02-06T17:48:17.772Z,59.13
2019-02-06T17:51:09.613Z,59.07
2019-02-06T17:53:43.276Z,59.20
2019-02-06T17:56:13.683Z,59.40
2019-02-06T17:58:44.149Z,59.40
2019-02-06T18:01:19.517Z,59.71
2019-02-06T18:03:50.559Z,60.60
2019-02-06T18:06:20.961Z,60.56
2019-02-06T18:08:56.779Z,60.61
2019-02-06T18:11:23.593Z,60.40
2019-02-06T18:13:54.071Z,60.93
2019-02-06T18:16:24.516Z,61.70
2019-02-06T18:18:55.887Z,62.87
2019-02-06T18:21:26.346Z,62.75
2019-02-06T18:23:57.789Z,61.42
2019-02-06T18:26:28.642Z,68.08
2019-02-06T18:28:59.138Z,61.18
2019-02-06T18:31:29.811Z,61.25
2019-02-06T18:34:00.306Z,62.12
2019-02-06T18:36:30.726Z,65.40
2019-02-06T18:39:01.157Z,61.53
2019-02-06T18:41:31.691Z,61.26
2019-02-06T18:44:02.274Z,61.15
2019-02-06T18:46:32.753Z,61.12
2019-02-06T18:49:03.489Z,61.27
2019-02-06T18:51:33.960Z,61.04
2019-02-06T18:54:05.699Z,61.43
2019-02-06T18:56:36.174Z,61.51
2019-02-06T18:59:06.851Z,61.67
2019-02-06T19:01:37.372Z,61.74
2019-02-06T19:04:07.903Z,61.86
2019-02-06T19:06:38.436Z,62.10
2019-02-06T19:09:11.254Z,62.37
2019-02-06T19:11:41.745Z,62.09
2019-02-06T19:14:12.273Z,62.50
2019-02-06T19:16:42.906Z,62.41
2019-02-06T19:19:24.847Z,62.42
2019-02-06T19:21:45.952Z,62.21
2019-02-06T19:24:17.900Z,62.45
2019-02-06T19:26:48.483Z,62.53
2019-02-06T19:29:19.046Z,62.51
2019-02-06T19:31:49.632Z,62.65
2019-02-06T19:34:20.108Z,62.62
2019-02-06T19:36:50.529Z,62.62
2019-02-06T19:39:20.961Z,62.66
2019-02-06T19:41:51.391Z,62.48
2019-02-06T19:44:21.925Z,62.64
2019-02-06T19:46:52.490Z,62.74
2019-02-06T19:49:23.082Z,62.93
2019-02-06T19:51:53.622Z,63.06
2019-02-06T19:54:24.108Z,62.90
2019-02-06T19:56:54.577Z,63.00
2019-02-06T19:59:25.108Z,63.03
2019-02-06T20:01:55.888Z,63.08
2019-02-06T20:04:26.372Z,63.13
2019-02-06T20:06:56.904Z,63.17
2019-02-06T20:09:27.329Z,63.07
2019-02-06T20:11:58.268Z,63.02
2019-02-06T20:14:28.700Z,62.82
2019-02-06T20:16:59.229Z,62.83
2019-02-06T20:19:29.660Z,62.70
2019-02-06T20:22:00.192Z,62.78
2019-02-06T20:24:30.949Z,62.77
2019-02-06T20:27:01.560Z,62.75
2019-02-06T20:29:31.964Z,62.71
